Current Weather

Tipton

Fort Meade(Odenton), Maryland (KFME)

Report from: Sunday, July 14, 2024 7:29 AM EDT
Current time: Sunday, July 14, 2024 7:44 AM EDT

Nearby weather – Weather history – Daily summaries
Weather forecast

Temperature22.0°C (71.6°F)
Dew point21.0°C (69.8°F)
Winds Calm
Visibility10 mi. (16.1 km)
Clouds Sky clear
Altimeter30.08 in.Hg (1019 mB)
Relative humidity94 %
Density altitude970 ft. (296 m)
Remarks Fully automated report
Automated weather observing station without precipitation discriminator
Flight conditions Visual Meteorological Conditions
Raw dataKFME 141129Z AUTO 00000KT 10SM CLR 22/21 A3008 RMK AO1
An error has occurred. This application may no longer respond until reloaded. Reload 🗙